sensor_id;sensor_type;location;lat;lon;timestamp;P1;durP1;ratioP1;P2;durP2;ratioP2
8074;SDS011;4080;42.676;23.372;2022-10-30T00:01:12;12.57;;;9.17;;
8074;SDS011;4080;42.676;23.372;2022-10-30T00:03:39;18.50;;;8.70;;
8074;SDS011;4080;42.676;23.372;2022-10-30T00:06:07;12.70;;;9.07;;
8074;SDS011;4080;42.676;23.372;2022-10-30T00:08:34;12.60;;;9.60;;
8074;SDS011;4080;42.676;23.372;2022-10-30T00:11:04;14.47;;;10.03;;
8074;SDS011;4080;42.676;23.372;2022-10-30T00:13:32;13.53;;;9.13;;
8074;SDS011;4080;42.676;23.372;2022-10-30T00:16:01;13.47;;;9.17;;
8074;SDS011;4080;42.676;23.372;2022-10-30T00:18:30;14.30;;;10.07;;
8074;SDS011;4080;42.676;23.372;2022-10-30T00:21:02;13.83;;;9.07;;
8074;SDS011;4080;42.676;23.372;2022-10-30T00:23:31;13.73;;;10.70;;
8074;SDS011;4080;42.676;23.372;2022-10-30T00:26:01;15.90;;;10.43;;
8074;SDS011;4080;42.676;23.372;2022-10-30T00:28:28;16.23;;;10.27;;
8074;SDS011;4080;42.676;23.372;2022-10-30T00:30:57;15.07;;;9.63;;
8074;SDS011;4080;42.676;23.372;2022-10-30T00:33:24;11.17;;;8.97;;
8074;SDS011;4080;42.676;23.372;2022-10-30T00:35:51;12.53;;;9.47;;
8074;SDS011;4080;42.676;23.372;2022-10-30T00:38:17;12.87;;;9.10;;
8074;SDS011;4080;42.676;23.372;2022-10-30T00:40:45;17.37;;;9.50;;
8074;SDS011;4080;42.676;23.372;2022-10-30T00:43:28;15.00;;;10.30;;
8074;SDS011;4080;42.676;23.372;2022-10-30T00:45:57;17.07;;;10.73;;
8074;SDS011;4080;42.676;23.372;2022-10-30T00:48:27;21.27;;;14.43;;
8074;SDS011;4080;42.676;23.372;2022-10-30T00:50:54;25.13;;;16.40;;
8074;SDS011;4080;42.676;23.372;2022-10-30T00:53:24;26.77;;;16.77;;
8074;SDS011;4080;42.676;23.372;2022-10-30T00:55:55;23.27;;;14.53;;
8074;SDS011;4080;42.676;23.372;2022-10-30T00:58:26;16.37;;;9.80;;
8074;SDS011;4080;42.676;23.372;2022-10-30T01:00:56;16.17;;;10.80;;
8074;SDS011;4080;42.676;23.372;2022-10-30T01:03:28;18.13;;;12.37;;
8074;SDS011;4080;42.676;23.372;2022-10-30T01:05:56;23.53;;;14.70;;
8074;SDS011;4080;42.676;23.372;2022-10-30T01:08:26;16.93;;;11.57;;
8074;SDS011;4080;42.676;23.372;2022-10-30T01:10:54;18.97;;;12.07;;
8074;SDS011;4080;42.676;23.372;2022-10-30T01:13:23;25.27;;;15.40;;
8074;SDS011;4080;42.676;23.372;2022-10-30T01:15:54;24.97;;;15.70;;
8074;SDS011;4080;42.676;23.372;2022-10-30T01:18:36;17.33;;;12.97;;
8074;SDS011;4080;42.676;23.372;2022-10-30T01:21:18;18.53;;;12.50;;
8074;SDS011;4080;42.676;23.372;2022-10-30T01:24:03;20.63;;;13.20;;
8074;SDS011;4080;42.676;23.372;2022-10-30T01:26:42;17.03;;;10.97;;
8074;SDS011;4080;42.676;23.372;2022-10-30T01:29:20;16.60;;;11.07;;
8074;SDS011;4080;42.676;23.372;2022-10-30T01:31:57;17.87;;;10.70;;
8074;SDS011;4080;42.676;23.372;2022-10-30T01:34:36;20.27;;;10.17;;
8074;SDS011;4080;42.676;23.372;2022-10-30T01:37:13;15.20;;;10.53;;
8074;SDS011;4080;42.676;23.372;2022-10-30T01:39:44;19.50;;;10.50;;
8074;SDS011;4080;42.676;23.372;2022-10-30T01:45:12;13.83;;;10.50;;
8074;SDS011;4080;42.676;23.372;2022-10-30T01:47:44;14.87;;;9.40;;
8074;SDS011;4080;42.676;23.372;2022-10-30T01:50:22;14.00;;;9.93;;
8074;SDS011;4080;42.676;23.372;2022-10-30T01:52:58;13.37;;;8.77;;
8074;SDS011;4080;42.676;23.372;2022-10-30T01:55:34;13.20;;;9.50;;
8074;SDS011;4080;42.676;23.372;2022-10-30T01:58:11;13.53;;;8.47;;
8074;SDS011;4080;42.676;23.372;2022-10-30T02:00:45;14.27;;;9.87;;
8074;SDS011;4080;42.676;23.372;2022-10-30T02:03:18;12.60;;;8.97;;
8074;SDS011;4080;42.676;23.372;2022-10-30T02:05:46;14.67;;;9.73;;
8074;SDS011;4080;42.676;23.372;2022-10-30T02:08:14;15.60;;;9.67;;
8074;SDS011;4080;42.676;23.372;2022-10-30T02:10:41;14.17;;;10.37;;
8074;SDS011;4080;42.676;23.372;2022-10-30T02:13:13;14.93;;;10.47;;
8074;SDS011;4080;42.676;23.372;2022-10-30T02:15:40;16.27;;;10.63;;
8074;SDS011;4080;42.676;23.372;2022-10-30T02:18:09;15.10;;;10.10;;
8074;SDS011;4080;42.676;23.372;2022-10-30T02:20:37;17.97;;;12.17;;
8074;SDS011;4080;42.676;23.372;2022-10-30T02:23:04;14.70;;;10.40;;
8074;SDS011;4080;42.676;23.372;2022-10-30T02:25:32;13.10;;;9.90;;
8074;SDS011;4080;42.676;23.372;2022-10-30T02:27:59;17.33;;;10.33;;
8074;SDS011;4080;42.676;23.372;2022-10-30T02:30:26;13.23;;;10.07;;
8074;SDS011;4080;42.676;23.372;2022-10-30T02:32:53;14.30;;;9.90;;
8074;SDS011;4080;42.676;23.372;2022-10-30T02:35:19;13.80;;;10.03;;
8074;SDS011;4080;42.676;23.372;2022-10-30T02:37:47;19.57;;;12.43;;
8074;SDS011;4080;42.676;23.372;2022-10-30T02:40:15;12.23;;;9.53;;
8074;SDS011;4080;42.676;23.372;2022-10-30T02:42:41;11.83;;;9.43;;
8074;SDS011;4080;42.676;23.372;2022-10-30T02:45:09;15.70;;;10.37;;
8074;SDS011;4080;42.676;23.372;2022-10-30T02:47:36;12.80;;;9.50;;
8074;SDS011;4080;42.676;23.372;2022-10-30T02:50:03;11.33;;;9.67;;
8074;SDS011;4080;42.676;23.372;2022-10-30T02:52:30;13.30;;;9.40;;
8074;SDS011;4080;42.676;23.372;2022-10-30T02:54:58;11.50;;;9.77;;
8074;SDS011;4080;42.676;23.372;2022-10-30T02:57:25;13.23;;;10.03;;
8074;SDS011;4080;42.676;23.372;2022-10-30T02:59:52;13.93;;;9.80;;
8074;SDS011;4080;42.676;23.372;2022-10-30T03:02:18;41.53;;;25.50;;
8074;SDS011;4080;42.676;23.372;2022-10-30T03:04:45;44.83;;;31.57;;
8074;SDS011;4080;42.676;23.372;2022-10-30T03:07:12;19.40;;;13.87;;
8074;SDS011;4080;42.676;23.372;2022-10-30T03:09:38;18.37;;;13.23;;
8074;SDS011;4080;42.676;23.372;2022-10-30T03:12:07;32.30;;;22.53;;
8074;SDS011;4080;42.676;23.372;2022-10-30T03:14:33;17.17;;;11.87;;
8074;SDS011;4080;42.676;23.372;2022-10-30T03:17:00;14.97;;;11.40;;
8074;SDS011;4080;42.676;23.372;2022-10-30T03:19:27;13.67;;;10.00;;
8074;SDS011;4080;42.676;23.372;2022-10-30T03:21:53;15.67;;;10.77;;
8074;SDS011;4080;42.676;23.372;2022-10-30T03:24:20;16.47;;;10.93;;
8074;SDS011;4080;42.676;23.372;2022-10-30T03:26:47;19.43;;;10.60;;
8074;SDS011;4080;42.676;23.372;2022-10-30T03:29:15;20.03;;;10.80;;
8074;SDS011;4080;42.676;23.372;2022-10-30T03:31:41;12.10;;;9.80;;
8074;SDS011;4080;42.676;23.372;2022-10-30T03:34:08;13.40;;;9.57;;
8074;SDS011;4080;42.676;23.372;2022-10-30T03:36:35;10.73;;;9.10;;
8074;SDS011;4080;42.676;23.372;2022-10-30T03:39:02;13.40;;;9.60;;
8074;SDS011;4080;42.676;23.372;2022-10-30T03:41:29;14.40;;;9.43;;
8074;SDS011;4080;42.676;23.372;2022-10-30T03:43:55;14.27;;;10.43;;
8074;SDS011;4080;42.676;23.372;2022-10-30T03:46:23;12.93;;;9.47;;
8074;SDS011;4080;42.676;23.372;2022-10-30T03:48:50;14.03;;;10.57;;
8074;SDS011;4080;42.676;23.372;2022-10-30T03:51:17;14.30;;;10.53;;
8074;SDS011;4080;42.676;23.372;2022-10-30T03:53:43;13.37;;;10.27;;
8074;SDS011;4080;42.676;23.372;2022-10-30T03:56:10;13.57;;;9.33;;
8074;SDS011;4080;42.676;23.372;2022-10-30T03:58:37;16.33;;;10.07;;
8074;SDS011;4080;42.676;23.372;2022-10-30T04:01:04;14.63;;;9.80;;
8074;SDS011;4080;42.676;23.372;2022-10-30T04:03:33;19.20;;;12.67;;
8074;SDS011;4080;42.676;23.372;2022-10-30T04:06:00;20.00;;;12.43;;
8074;SDS011;4080;42.676;23.372;2022-10-30T04:08:27;14.13;;;10.30;;
8074;SDS011;4080;42.676;23.372;2022-10-30T04:10:54;13.87;;;9.97;;
8074;SDS011;4080;42.676;23.372;2022-10-30T04:13:20;13.03;;;9.33;;
8074;SDS011;4080;42.676;23.372;2022-10-30T04:15:47;15.60;;;10.40;;
8074;SDS011;4080;42.676;23.372;2022-10-30T04:18:14;60.73;;;43.23;;
8074;SDS011;4080;42.676;23.372;2022-10-30T04:20:44;61.50;;;42.73;;
8074;SDS011;4080;42.676;23.372;2022-10-30T04:23:12;123.80;;;88.03;;
8074;SDS011;4080;42.676;23.372;2022-10-30T04:25:40;129.47;;;95.53;;
8074;SDS011;4080;42.676;23.372;2022-10-30T04:28:07;137.20;;;102.57;;
8074;SDS011;4080;42.676;23.372;2022-10-30T04:30:34;138.70;;;103.40;;
8074;SDS011;4080;42.676;23.372;2022-10-30T04:33:01;122.53;;;92.17;;
8074;SDS011;4080;42.676;23.372;2022-10-30T04:35:30;109.07;;;80.37;;
8074;SDS011;4080;42.676;23.372;2022-10-30T04:37:59;76.77;;;52.53;;
8074;SDS011;4080;42.676;23.372;2022-10-30T04:40:28;65.30;;;45.00;;
8074;SDS011;4080;42.676;23.372;2022-10-30T04:42:56;72.63;;;49.07;;
8074;SDS011;4080;42.676;23.372;2022-10-30T04:45:23;67.43;;;48.57;;
8074;SDS011;4080;42.676;23.372;2022-10-30T04:47:50;74.57;;;52.50;;
8074;SDS011;4080;42.676;23.372;2022-10-30T04:50:17;72.50;;;51.93;;
8074;SDS011;4080;42.676;23.372;2022-10-30T04:52:44;76.03;;;50.83;;
8074;SDS011;4080;42.676;23.372;2022-10-30T04:55:12;69.47;;;46.07;;
8074;SDS011;4080;42.676;23.372;2022-10-30T04:57:39;72.03;;;50.63;;
8074;SDS011;4080;42.676;23.372;2022-10-30T05:00:06;87.60;;;60.17;;
8074;SDS011;4080;42.676;23.372;2022-10-30T05:02:34;110.73;;;73.67;;
8074;SDS011;4080;42.676;23.372;2022-10-30T05:05:00;77.90;;;55.57;;
8074;SDS011;4080;42.676;23.372;2022-10-30T05:07:27;80.87;;;56.20;;
8074;SDS011;4080;42.676;23.372;2022-10-30T05:09:54;80.57;;;56.23;;
8074;SDS011;4080;42.676;23.372;2022-10-30T05:12:22;84.13;;;57.80;;
8074;SDS011;4080;42.676;23.372;2022-10-30T05:14:49;81.37;;;55.93;;
8074;SDS011;4080;42.676;23.372;2022-10-30T05:17:15;78.43;;;56.03;;
8074;SDS011;4080;42.676;23.372;2022-10-30T05:19:42;78.77;;;53.20;;
8074;SDS011;4080;42.676;23.372;2022-10-30T05:22:09;73.70;;;50.20;;
8074;SDS011;4080;42.676;23.372;2022-10-30T05:24:36;60.53;;;44.30;;
8074;SDS011;4080;42.676;23.372;2022-10-30T05:27:03;57.63;;;43.40;;
8074;SDS011;4080;42.676;23.372;2022-10-30T05:29:31;56.20;;;42.07;;
8074;SDS011;4080;42.676;23.372;2022-10-30T05:31:58;47.93;;;37.83;;
8074;SDS011;4080;42.676;23.372;2022-10-30T05:34:25;50.50;;;37.33;;
8074;SDS011;4080;42.676;23.372;2022-10-30T05:36:52;46.73;;;34.17;;
8074;SDS011;4080;42.676;23.372;2022-10-30T05:39:18;37.90;;;26.47;;
8074;SDS011;4080;42.676;23.372;2022-10-30T05:41:45;41.47;;;29.33;;
8074;SDS011;4080;42.676;23.372;2022-10-30T05:44:12;33.73;;;26.80;;
8074;SDS011;4080;42.676;23.372;2022-10-30T05:46:40;34.40;;;24.63;;
8074;SDS011;4080;42.676;23.372;2022-10-30T05:49:07;28.07;;;23.23;;
8074;SDS011;4080;42.676;23.372;2022-10-30T05:51:34;26.97;;;21.37;;
8074;SDS011;4080;42.676;23.372;2022-10-30T05:54:01;28.87;;;21.93;;
8074;SDS011;4080;42.676;23.372;2022-10-30T05:56:27;28.43;;;19.33;;
8074;SDS011;4080;42.676;23.372;2022-10-30T05:58:54;27.93;;;20.23;;
8074;SDS011;4080;42.676;23.372;2022-10-30T06:01:21;29.37;;;23.87;;
8074;SDS011;4080;42.676;23.372;2022-10-30T06:03:49;33.40;;;24.70;;
8074;SDS011;4080;42.676;23.372;2022-10-30T06:06:15;25.43;;;19.90;;
8074;SDS011;4080;42.676;23.372;2022-10-30T06:08:42;36.07;;;26.63;;
8074;SDS011;4080;42.676;23.372;2022-10-30T06:11:09;18.97;;;16.07;;
8074;SDS011;4080;42.676;23.372;2022-10-30T06:13:35;22.93;;;14.63;;
8074;SDS011;4080;42.676;23.372;2022-10-30T06:16:03;18.47;;;13.03;;
8074;SDS011;4080;42.676;23.372;2022-10-30T06:18:30;24.57;;;13.87;;
8074;SDS011;4080;42.676;23.372;2022-10-30T06:20:58;15.23;;;12.73;;
8074;SDS011;4080;42.676;23.372;2022-10-30T06:23:25;20.57;;;12.97;;
8074;SDS011;4080;42.676;23.372;2022-10-30T06:25:51;17.67;;;12.87;;
8074;SDS011;4080;42.676;23.372;2022-10-30T06:28:18;15.27;;;11.70;;
8074;SDS011;4080;42.676;23.372;2022-10-30T06:30:45;18.67;;;11.47;;
8074;SDS011;4080;42.676;23.372;2022-10-30T06:33:11;15.90;;;10.07;;
8074;SDS011;4080;42.676;23.372;2022-10-30T06:35:38;15.80;;;9.33;;
8074;SDS011;4080;42.676;23.372;2022-10-30T06:38:06;18.20;;;10.83;;
8074;SDS011;4080;42.676;23.372;2022-10-30T06:40:36;15.37;;;10.27;;
8074;SDS011;4080;42.676;23.372;2022-10-30T06:43:02;19.17;;;10.53;;
8074;SDS011;4080;42.676;23.372;2022-10-30T06:45:29;11.93;;;9.53;;
8074;SDS011;4080;42.676;23.372;2022-10-30T06:47:56;13.10;;;9.53;;
8074;SDS011;4080;42.676;23.372;2022-10-30T06:50:23;16.47;;;10.47;;
8074;SDS011;4080;42.676;23.372;2022-10-30T06:52:49;15.20;;;8.87;;
8074;SDS011;4080;42.676;23.372;2022-10-30T06:55:18;12.37;;;8.90;;
8074;SDS011;4080;42.676;23.372;2022-10-30T06:57:44;15.67;;;11.37;;
8074;SDS011;4080;42.676;23.372;2022-10-30T07:00:11;15.63;;;10.43;;
8074;SDS011;4080;42.676;23.372;2022-10-30T07:02:39;15.23;;;10.60;;
8074;SDS011;4080;42.676;23.372;2022-10-30T07:05:06;12.57;;;11.23;;
8074;SDS011;4080;42.676;23.372;2022-10-30T07:07:32;21.47;;;12.27;;
8074;SDS011;4080;42.676;23.372;2022-10-30T07:09:59;17.43;;;11.40;;
8074;SDS011;4080;42.676;23.372;2022-10-30T07:12:27;17.67;;;11.20;;
8074;SDS011;4080;42.676;23.372;2022-10-30T07:14:54;17.50;;;12.77;;
8074;SDS011;4080;42.676;23.372;2022-10-30T07:17:21;18.00;;;12.93;;
8074;SDS011;4080;42.676;23.372;2022-10-30T07:19:47;17.33;;;12.70;;
8074;SDS011;4080;42.676;23.372;2022-10-30T07:22:14;20.53;;;13.20;;
8074;SDS011;4080;42.676;23.372;2022-10-30T07:24:41;15.70;;;13.77;;
8074;SDS011;4080;42.676;23.372;2022-10-30T07:27:07;20.20;;;14.23;;
8074;SDS011;4080;42.676;23.372;2022-10-30T07:29:35;16.73;;;13.60;;
8074;SDS011;4080;42.676;23.372;2022-10-30T07:32:02;18.90;;;14.93;;
8074;SDS011;4080;42.676;23.372;2022-10-30T07:34:29;17.97;;;13.07;;
8074;SDS011;4080;42.676;23.372;2022-10-30T07:36:56;16.70;;;14.17;;
8074;SDS011;4080;42.676;23.372;2022-10-30T07:39:23;15.63;;;13.33;;
8074;SDS011;4080;42.676;23.372;2022-10-30T07:41:50;19.50;;;13.17;;
8074;SDS011;4080;42.676;23.372;2022-10-30T07:44:16;19.43;;;13.10;;
8074;SDS011;4080;42.676;23.372;2022-10-30T07:46:44;16.60;;;12.63;;
8074;SDS011;4080;42.676;23.372;2022-10-30T07:49:11;16.67;;;12.93;;
8074;SDS011;4080;42.676;23.372;2022-10-30T07:51:38;17.10;;;13.83;;
8074;SDS011;4080;42.676;23.372;2022-10-30T07:54:04;14.73;;;13.00;;
8074;SDS011;4080;42.676;23.372;2022-10-30T07:56:31;18.73;;;14.30;;
8074;SDS011;4080;42.676;23.372;2022-10-30T07:58:58;15.97;;;13.63;;
8074;SDS011;4080;42.676;23.372;2022-10-30T08:01:24;19.03;;;14.87;;
8074;SDS011;4080;42.676;23.372;2022-10-30T08:03:52;16.00;;;13.83;;
8074;SDS011;4080;42.676;23.372;2022-10-30T08:06:19;18.13;;;13.13;;
8074;SDS011;4080;42.676;23.372;2022-10-30T08:08:46;19.30;;;13.43;;
8074;SDS011;4080;42.676;23.372;2022-10-30T08:11:12;14.70;;;13.17;;
8074;SDS011;4080;42.676;23.372;2022-10-30T08:13:39;14.90;;;13.27;;
8074;SDS011;4080;42.676;23.372;2022-10-30T08:16:06;16.60;;;13.50;;
8074;SDS011;4080;42.676;23.372;2022-10-30T08:18:33;15.43;;;13.33;;
8074;SDS011;4080;42.676;23.372;2022-10-30T08:21:02;15.00;;;13.37;;
8074;SDS011;4080;42.676;23.372;2022-10-30T08:23:28;16.50;;;13.93;;
8074;SDS011;4080;42.676;23.372;2022-10-30T08:25:56;20.13;;;13.43;;
8074;SDS011;4080;42.676;23.372;2022-10-30T08:28:25;15.87;;;12.23;;
8074;SDS011;4080;42.676;23.372;2022-10-30T08:30:52;16.90;;;13.23;;
8074;SDS011;4080;42.676;23.372;2022-10-30T08:33:19;14.03;;;12.63;;
8074;SDS011;4080;42.676;23.372;2022-10-30T08:35:46;17.57;;;12.40;;
8074;SDS011;4080;42.676;23.372;2022-10-30T08:38:15;16.50;;;13.50;;
8074;SDS011;4080;42.676;23.372;2022-10-30T08:40:43;16.20;;;12.67;;
8074;SDS011;4080;42.676;23.372;2022-10-30T08:43:10;17.87;;;13.20;;
8074;SDS011;4080;42.676;23.372;2022-10-30T08:45:37;18.27;;;13.40;;
8074;SDS011;4080;42.676;23.372;2022-10-30T08:48:04;14.30;;;12.90;;
8074;SDS011;4080;42.676;23.372;2022-10-30T08:50:32;20.43;;;13.50;;
8074;SDS011;4080;42.676;23.372;2022-10-30T08:53:00;17.90;;;15.40;;
8074;SDS011;4080;42.676;23.372;2022-10-30T08:55:28;18.40;;;14.90;;
8074;SDS011;4080;42.676;23.372;2022-10-30T08:57:55;21.23;;;14.30;;
8074;SDS011;4080;42.676;23.372;2022-10-30T09:00:22;20.23;;;15.50;;
8074;SDS011;4080;42.676;23.372;2022-10-30T09:02:49;20.83;;;16.23;;
8074;SDS011;4080;42.676;23.372;2022-10-30T09:05:16;16.07;;;13.10;;
8074;SDS011;4080;42.676;23.372;2022-10-30T09:07:43;17.73;;;14.33;;
8074;SDS011;4080;42.676;23.372;2022-10-30T09:10:10;16.80;;;14.80;;
8074;SDS011;4080;42.676;23.372;2022-10-30T09:12:38;20.67;;;14.43;;
8074;SDS011;4080;42.676;23.372;2022-10-30T09:15:05;24.70;;;21.67;;
8074;SDS011;4080;42.676;23.372;2022-10-30T09:17:33;17.50;;;15.40;;
8074;SDS011;4080;42.676;23.372;2022-10-30T09:19:59;22.80;;;15.13;;
8074;SDS011;4080;42.676;23.372;2022-10-30T09:22:26;16.03;;;13.60;;
8074;SDS011;4080;42.676;23.372;2022-10-30T09:24:53;15.47;;;13.10;;
8074;SDS011;4080;42.676;23.372;2022-10-30T09:27:19;14.43;;;13.00;;
8074;SDS011;4080;42.676;23.372;2022-10-30T09:29:48;18.50;;;13.70;;
8074;SDS011;4080;42.676;23.372;2022-10-30T09:32:14;15.33;;;13.03;;
8074;SDS011;4080;42.676;23.372;2022-10-30T09:34:41;16.07;;;14.17;;
8074;SDS011;4080;42.676;23.372;2022-10-30T09:37:08;16.73;;;14.40;;
8074;SDS011;4080;42.676;23.372;2022-10-30T09:39:34;18.43;;;14.43;;
8074;SDS011;4080;42.676;23.372;2022-10-30T09:42:20;17.60;;;13.90;;
8074;SDS011;4080;42.676;23.372;2022-10-30T09:45:05;19.87;;;13.67;;
8074;SDS011;4080;42.676;23.372;2022-10-30T09:48:11;17.87;;;14.53;;
8074;SDS011;4080;42.676;23.372;2022-10-30T09:51:08;14.30;;;12.80;;
8074;SDS011;4080;42.676;23.372;2022-10-30T09:54:00;16.63;;;12.17;;
8074;SDS011;4080;42.676;23.372;2022-10-30T09:56:38;16.40;;;13.30;;
8074;SDS011;4080;42.676;23.372;2022-10-30T09:59:10;14.10;;;11.90;;
8074;SDS011;4080;42.676;23.372;2022-10-30T10:01:50;14.13;;;11.90;;
8074;SDS011;4080;42.676;23.372;2022-10-30T10:04:22;16.83;;;11.97;;
8074;SDS011;4080;42.676;23.372;2022-10-30T10:06:53;18.53;;;12.13;;
8074;SDS011;4080;42.676;23.372;2022-10-30T10:09:26;18.30;;;11.87;;
8074;SDS011;4080;42.676;23.372;2022-10-30T10:11:55;17.60;;;12.80;;
8074;SDS011;4080;42.676;23.372;2022-10-30T10:14:26;14.70;;;11.53;;
8074;SDS011;4080;42.676;23.372;2022-10-30T10:16:56;14.60;;;13.00;;
8074;SDS011;4080;42.676;23.372;2022-10-30T10:19:27;16.97;;;11.33;;
8074;SDS011;4080;42.676;23.372;2022-10-30T10:21:58;15.83;;;11.70;;
8074;SDS011;4080;42.676;23.372;2022-10-30T10:24:27;12.40;;;10.57;;
8074;SDS011;4080;42.676;23.372;2022-10-30T10:26:59;16.90;;;11.60;;
8074;SDS011;4080;42.676;23.372;2022-10-30T10:29:31;14.23;;;10.00;;
8074;SDS011;4080;42.676;23.372;2022-10-30T10:35:23;14.47;;;9.70;;
8074;SDS011;4080;42.676;23.372;2022-10-30T10:38:08;11.07;;;9.53;;
8074;SDS011;4080;42.676;23.372;2022-10-30T10:40:49;12.70;;;9.33;;
8074;SDS011;4080;42.676;23.372;2022-10-30T10:43:26;11.97;;;9.30;;
8074;SDS011;4080;42.676;23.372;2022-10-30T10:46:06;12.30;;;8.50;;
8074;SDS011;4080;42.676;23.372;2022-10-30T10:49:01;13.77;;;8.90;;
8074;SDS011;4080;42.676;23.372;2022-10-30T10:51:42;11.07;;;8.23;;
8074;SDS011;4080;42.676;23.372;2022-10-30T10:54:13;10.80;;;7.80;;
8074;SDS011;4080;42.676;23.372;2022-10-30T10:56:46;9.70;;;7.13;;
8074;SDS011;4080;42.676;23.372;2022-10-30T10:59:15;10.30;;;6.73;;
8074;SDS011;4080;42.676;23.372;2022-10-30T11:01:48;7.43;;;6.53;;
8074;SDS011;4080;42.676;23.372;2022-10-30T11:04:25;8.73;;;6.53;;
8074;SDS011;4080;42.676;23.372;2022-10-30T11:06:57;9.73;;;7.30;;
8074;SDS011;4080;42.676;23.372;2022-10-30T11:09:24;6.63;;;5.60;;
8074;SDS011;4080;42.676;23.372;2022-10-30T11:11:53;8.43;;;7.17;;
8074;SDS011;4080;42.676;23.372;2022-10-30T11:14:21;12.00;;;6.47;;
8074;SDS011;4080;42.676;23.372;2022-10-30T11:17:01;7.90;;;6.77;;
8074;SDS011;4080;42.676;23.372;2022-10-30T11:19:37;8.47;;;6.60;;
8074;SDS011;4080;42.676;23.372;2022-10-30T11:22:07;10.30;;;6.67;;
8074;SDS011;4080;42.676;23.372;2022-10-30T11:24:47;7.77;;;5.73;;
8074;SDS011;4080;42.676;23.372;2022-10-30T11:27:17;7.27;;;5.97;;
8074;SDS011;4080;42.676;23.372;2022-10-30T11:29:51;10.80;;;6.27;;
8074;SDS011;4080;42.676;23.372;2022-10-30T11:32:20;8.27;;;7.03;;
8074;SDS011;4080;42.676;23.372;2022-10-30T11:35:00;7.67;;;5.67;;
8074;SDS011;4080;42.676;23.372;2022-10-30T11:37:28;8.80;;;5.10;;
8074;SDS011;4080;42.676;23.372;2022-10-30T11:40:03;8.43;;;5.73;;
8074;SDS011;4080;42.676;23.372;2022-10-30T11:42:33;10.27;;;5.87;;
8074;SDS011;4080;42.676;23.372;2022-10-30T11:45:00;7.90;;;5.70;;
8074;SDS011;4080;42.676;23.372;2022-10-30T11:47:29;5.30;;;4.80;;
8074;SDS011;4080;42.676;23.372;2022-10-30T11:50:00;11.27;;;5.07;;
8074;SDS011;4080;42.676;23.372;2022-10-30T11:52:30;6.27;;;5.50;;
8074;SDS011;4080;42.676;23.372;2022-10-30T11:55:07;9.53;;;5.17;;
8074;SDS011;4080;42.676;23.372;2022-10-30T11:57:40;6.97;;;4.80;;
8074;SDS011;4080;42.676;23.372;2022-10-30T12:00:13;8.83;;;5.27;;
8074;SDS011;4080;42.676;23.372;2022-10-30T12:02:42;7.77;;;4.60;;
8074;SDS011;4080;42.676;23.372;2022-10-30T12:05:28;8.17;;;5.70;;
8074;SDS011;4080;42.676;23.372;2022-10-30T12:08:10;5.73;;;5.13;;
8074;SDS011;4080;42.676;23.372;2022-10-30T12:10:43;8.83;;;5.70;;
8074;SDS011;4080;42.676;23.372;2022-10-30T12:13:12;10.80;;;5.03;;
8074;SDS011;4080;42.676;23.372;2022-10-30T12:15:41;6.60;;;4.20;;
8074;SDS011;4080;42.676;23.372;2022-10-30T12:18:15;8.13;;;4.20;;
8074;SDS011;4080;42.676;23.372;2022-10-30T12:20:53;5.90;;;4.10;;
8074;SDS011;4080;42.676;23.372;2022-10-30T12:23:23;6.57;;;3.77;;
8074;SDS011;4080;42.676;23.372;2022-10-30T12:25:51;9.27;;;4.07;;
8074;SDS011;4080;42.676;23.372;2022-10-30T12:28:19;5.23;;;3.30;;
8074;SDS011;4080;42.676;23.372;2022-10-30T12:30:48;4.80;;;3.83;;
8074;SDS011;4080;42.676;23.372;2022-10-30T12:33:19;9.37;;;5.30;;
8074;SDS011;4080;42.676;23.372;2022-10-30T12:35:51;8.47;;;4.53;;
8074;SDS011;4080;42.676;23.372;2022-10-30T12:38:23;7.20;;;4.03;;
8074;SDS011;4080;42.676;23.372;2022-10-30T12:40:58;7.00;;;3.40;;
8074;SDS011;4080;42.676;23.372;2022-10-30T12:43:30;7.43;;;3.17;;
8074;SDS011;4080;42.676;23.372;2022-10-30T12:46:03;5.70;;;3.47;;
8074;SDS011;4080;42.676;23.372;2022-10-30T12:48:40;5.23;;;3.80;;
8074;SDS011;4080;42.676;23.372;2022-10-30T12:51:16;7.67;;;3.70;;
8074;SDS011;4080;42.676;23.372;2022-10-30T12:53:50;6.60;;;3.43;;
8074;SDS011;4080;42.676;23.372;2022-10-30T12:56:24;6.20;;;3.50;;
8074;SDS011;4080;42.676;23.372;2022-10-30T12:58:56;8.10;;;3.67;;
8074;SDS011;4080;42.676;23.372;2022-10-30T13:01:33;7.00;;;4.10;;
8074;SDS011;4080;42.676;23.372;2022-10-30T13:04:08;5.93;;;3.60;;
8074;SDS011;4080;42.676;23.372;2022-10-30T13:06:40;4.13;;;3.40;;
8074;SDS011;4080;42.676;23.372;2022-10-30T13:09:13;7.83;;;3.63;;
8074;SDS011;4080;42.676;23.372;2022-10-30T13:11:44;6.23;;;3.37;;
8074;SDS011;4080;42.676;23.372;2022-10-30T13:14:18;9.37;;;3.40;;
8074;SDS011;4080;42.676;23.372;2022-10-30T13:16:49;6.80;;;3.60;;
8074;SDS011;4080;42.676;23.372;2022-10-30T13:19:17;6.40;;;2.87;;
8074;SDS011;4080;42.676;23.372;2022-10-30T13:21:47;5.30;;;3.07;;
8074;SDS011;4080;42.676;23.372;2022-10-30T13:24:20;5.20;;;3.53;;
8074;SDS011;4080;42.676;23.372;2022-10-30T13:26:54;5.43;;;3.10;;
8074;SDS011;4080;42.676;23.372;2022-10-30T13:29:27;5.90;;;3.13;;
8074;SDS011;4080;42.676;23.372;2022-10-30T13:32:00;5.27;;;2.57;;
8074;SDS011;4080;42.676;23.372;2022-10-30T13:34:39;6.80;;;2.80;;
8074;SDS011;4080;42.676;23.372;2022-10-30T13:37:13;8.10;;;3.00;;
8074;SDS011;4080;42.676;23.372;2022-10-30T13:39:46;3.57;;;2.20;;
8074;SDS011;4080;42.676;23.372;2022-10-30T13:42:26;6.90;;;3.00;;
8074;SDS011;4080;42.676;23.372;2022-10-30T13:45:06;5.03;;;2.43;;
8074;SDS011;4080;42.676;23.372;2022-10-30T13:47:47;6.13;;;2.80;;
8074;SDS011;4080;42.676;23.372;2022-10-30T13:50:28;6.03;;;2.70;;
8074;SDS011;4080;42.676;23.372;2022-10-30T13:53:03;4.20;;;2.60;;
8074;SDS011;4080;42.676;23.372;2022-10-30T13:55:34;5.63;;;2.70;;
8074;SDS011;4080;42.676;23.372;2022-10-30T13:58:06;10.63;;;3.13;;
8074;SDS011;4080;42.676;23.372;2022-10-30T14:00:51;4.97;;;2.83;;
8074;SDS011;4080;42.676;23.372;2022-10-30T14:03:26;6.27;;;2.83;;
8074;SDS011;4080;42.676;23.372;2022-10-30T14:06:08;6.53;;;2.83;;
8074;SDS011;4080;42.676;23.372;2022-10-30T14:08:42;5.87;;;2.90;;
8074;SDS011;4080;42.676;23.372;2022-10-30T14:11:17;8.37;;;3.40;;
8074;SDS011;4080;42.676;23.372;2022-10-30T14:13:45;6.70;;;3.17;;
8074;SDS011;4080;42.676;23.372;2022-10-30T14:16:29;6.00;;;3.20;;
8074;SDS011;4080;42.676;23.372;2022-10-30T14:18:58;8.00;;;2.90;;
8074;SDS011;4080;42.676;23.372;2022-10-30T14:21:31;6.40;;;3.40;;
8074;SDS011;4080;42.676;23.372;2022-10-30T14:24:09;6.73;;;3.50;;
8074;SDS011;4080;42.676;23.372;2022-10-30T14:26:44;5.70;;;2.97;;
8074;SDS011;4080;42.676;23.372;2022-10-30T14:29:28;5.00;;;2.50;;
8074;SDS011;4080;42.676;23.372;2022-10-30T14:32:33;9.63;;;4.60;;
8074;SDS011;4080;42.676;23.372;2022-10-30T14:41:06;13.47;;;4.07;;
8074;SDS011;4080;42.676;23.372;2022-10-30T14:43:45;10.73;;;3.63;;
8074;SDS011;4080;42.676;23.372;2022-10-30T14:46:22;6.03;;;2.90;;
8074;SDS011;4080;42.676;23.372;2022-10-30T14:49:03;9.67;;;3.37;;
8074;SDS011;4080;42.676;23.372;2022-10-30T14:51:41;8.53;;;3.13;;
8074;SDS011;4080;42.676;23.372;2022-10-30T14:54:16;7.20;;;3.80;;
8074;SDS011;4080;42.676;23.372;2022-10-30T14:56:49;16.37;;;12.90;;
8074;SDS011;4080;42.676;23.372;2022-10-30T14:59:22;5.03;;;3.97;;
8074;SDS011;4080;42.676;23.372;2022-10-30T15:01:58;8.83;;;3.40;;
8074;SDS011;4080;42.676;23.372;2022-10-30T15:04:44;8.10;;;3.40;;
8074;SDS011;4080;42.676;23.372;2022-10-30T15:07:25;7.67;;;3.70;;
8074;SDS011;4080;42.676;23.372;2022-10-30T15:10:03;5.87;;;4.00;;
8074;SDS011;4080;42.676;23.372;2022-10-30T15:12:43;5.47;;;3.63;;
8074;SDS011;4080;42.676;23.372;2022-10-30T15:15:16;8.37;;;3.83;;